Data for 11/05/2005

Time Sea-Level Adjusted Pressure Absolute Pressure Temperature Relative Humidity Dew Point   
(mb) (inHg) (mb) (inHg) (C) (F) (%) (C) (F)
00:05 1011 29.85 840 24.81 -0.7 30.7 58 -8.1 17.5
00:10 1011 29.85 840 24.81 -0.5 31.1 63 -6.7 19.9
00:15 1011 29.85 840 24.81 -1 30.2 66 -6.6 20.1
00:20 1011 29.85 840 24.81 -1.2 29.8 67 -6.5 20.3
00:25 1011 29.85 840 24.81 -1.4 29.5 69 -6.4 20.5
00:30 1011 29.85 840 24.81 -1.4 29.5 66 -7 19.4
00:35 1011 29.85 840 24.81 -1 30.2 62 -7.4 18.8
00:40 1011 29.85 840 24.81 -0.5 31.1 60 -7.3 18.9
00:45 1011 29.85 840 24.81 -0.3 31.5 61 -7 19.5
00:50 1011 29.85 840 24.81 -0.2 31.6 60 -7.1 19.2
00:55 1011 29.85 840 24.81 -0.4 31.4 62 -6.7 20
01:00 1011 29.85 840 24.81 -0.7 30.7 63 -6.9 19.6
01:05 1011 29.85 840 24.81 -1 30.3 66 -6.6 20.1
01:10 1011 29.85 840 24.81 -1.4 29.6 69 -6.4 20.5
01:15 1011 29.85 840 24.81 -1.5 29.2 65 -7.3 18.8
01:20 1011 29.85 840 24.81 -1.1 30 61 -7.6 18.3
01:25 1011 29.85 840 24.81 -0.7 30.7 58 -8 17.6
01:30 1011 29.85 840 24.81 -0.3 31.4 56 -8.1 17.4
01:35 1011 29.85 840 24.81 -0.9 30.4 66 -6.4 20.5
01:40 1011 29.85 840 24.81 -1.8 28.7 67 -7.3 18.9
01:45 1011 29.85 840 24.81 -1.7 28.9 66 -7.2 19
01:50 1011 29.85 840 24.81 -1.7 28.9 66 -7.4 18.7
01:55 1011 29.85 840 24.81 -1.7 29 65 -7.5 18.6
02:00 1011 29.85 840 24.81 -1.7 29 65 -7.4 18.7
02:05 1011 29.85 840 24.81 -1.5 29.3 62 -8 17.7
02:10 1011 29.85 840 24.81 -1.5 29.3 62 -7.9 17.7
02:15 1011 29.85 840 24.81 -1.6 29.2 62 -7.9 17.9
02:20 1010 29.83 840 24.81 -1.5 29.4 59 -8.5 16.7
02:25 1010 29.83 840 24.81 -1.6 29.1 63 -7.8 17.9
02:30 1010 29.83 840 24.81 -1.8 28.7 63 -7.9 17.8
02:35 1010 29.83 839 24.78 -1.8 28.8 64 -7.6 18.3
02:40 1010 29.83 839 24.78 -1.3 29.6 61 -7.8 18
02:45 1010 29.83 839 24.78 -0.7 30.8 57 -8.2 17.2
02:50 1010 29.83 839 24.78 -0.5 31 55 -8.6 16.6
02:55 1010 29.83 839 24.78 -0.7 30.7 56 -8.4 16.8
03:00 1010 29.83 839 24.78 -0.5 31 55 -8.5 16.7
03:05 1010 29.83 839 24.78 -0.4 31.3 55 -8.4 16.8
03:10 1010 29.83 839 24.78 -0.7 30.7 57 -8.1 17.4
03:15 1010 29.83 839 24.78 -0.8 30.5 57 -8.2 17.2
03:20 1010 29.83 839 24.78 -0.6 30.9 57 -8.1 17.4
03:25 1010 29.83 839 24.78 -0.8 30.5 60 -7.6 18.4
03:30 1010 29.83 839 24.78 -1 30.1 61 -7.7 18.2
03:35 1010 29.83 839 24.78 -1.1 30 60 -7.9 17.8
03:40 1010 29.83 839 24.78 -0.8 30.6 60 -7.6 18.3
03:45 1010 29.83 839 24.78 -0.8 30.6 59 -7.8 17.9
03:50 1010 29.83 839 24.78 -0.4 31.3 59 -7.5 18.6
03:55 1010 29.83 839 24.78 -0.5 31.1 63 -6.7 20
04:00 1010 29.83 839 24.78 -0.9 30.4 64 -6.8 19.7
04:05 1010 29.83 839 24.78 -0.9 30.5 62 -7.3 18.9
04:10 1010 29.83 839 24.78 -0.7 30.7 61 -7.3 18.8
04:15 1010 29.83 839 24.78 -0.7 30.8 60 -7.4 18.7
04:20 1010 29.83 839 24.78 -0.6 30.8 61 -7.2 19
04:25 1010 29.83 840 24.81 -0.6 30.9 62 -7 19.4
04:30 1010 29.83 840 24.81 -0.9 30.5 65 -6.7 20
04:35 1010 29.83 840 24.81 -1.2 29.8 65 -7 19.4
04:40 1010 29.83 840 24.81 -1.2 29.8 65 -7 19.4
04:45 1010 29.83 840 24.81 -1.1 30 63 -7.4 18.7
04:50 1010 29.83 840 24.81 -1.1 30 63 -7.2 19
04:55 1010 29.83 840 24.81 -1.1 30 63 -7.3 18.8
05:00 1011 29.85 840 24.81 -1.1 30.1 63 -7.3 18.9
05:05 1010 29.83 840 24.81 -1.2 29.9 64 -7.2 19.1
05:10 1011 29.85 840 24.81 -1.4 29.5 67 -6.8 19.8
05:15 1011 29.85 840 24.81 -1.8 28.8 68 -7 19.4
05:20 1011 29.85 840 24.81 -1.8 28.7 68 -7.1 19.3
05:25 1011 29.85 840 24.81 -1.4 29.5 59 -8.3 17
05:30 1011 29.85 840 24.81 -0.5 31.1 56 -8.1 17.4
05:35 1011 29.85 840 24.81 -0.1 31.8 56 -7.9 17.8
05:40 1011 29.85 840 24.81 -0.1 31.7 57 -7.7 18.2
05:45 1011 29.85 840 24.81 -0.4 31.2 58 -7.6 18.2
05:50 1011 29.85 840 24.81 -0.4 31.2 58 -7.6 18.3
05:55 1011 29.85 840 24.81 -0.4 31.4 58 -7.6 18.3
06:00 1011 29.85 840 24.81 -0.5 31.2 60 -7.2 19
06:05 1011 29.85 840 24.81 -0.2 31.6 56 -8.1 17.5
06:10 1011 29.85 840 24.81 0.8 33.4 53 -7.8 18
06:15 1011 29.85 840 24.81 1 33.7 54 -7.4 18.7
06:20 1011 29.85 840 24.81 0.7 33.3 56 -7.1 19.1
06:25 1011 29.85 840 24.81 0.6 33 57 -7 19.4
06:30 1011 29.85 840 24.81 0.5 33 60 -6.3 20.7
06:35 1011 29.85 840 24.81 0.5 33 62 -5.8 21.5
06:40 1011 29.85 840 24.81 0.5 33 64 -5.6 22
06:45 1011 29.85 840 24.81 0.5 32.9 62 -5.9 21.4
06:50 1011 29.85 840 24.81 0.7 33.2 61 -5.9 21.4
06:55 1011 29.85 841 24.83 0.7 33.2 62 -5.9 21.4
07:00 1011 29.85 841 24.83 0.6 33.1 62 -5.7 21.7
07:05 1011 29.85 841 24.83 0.6 33.2 62 -5.9 21.4
07:10 1011 29.85 841 24.83 0.6 33.1 63 -5.6 21.9
07:15 1012 29.88 841 24.83 0.5 33 63 -5.7 21.8
07:20 1012 29.88 841 24.83 0.6 33.1 62 -5.9 21.3
07:25 1012 29.88 841 24.83 0.7 33.2 61 -5.9 21.4
07:30 1012 29.88 841 24.83 0.7 33.2 61 -6 21.1
07:35 1012 29.88 841 24.83 0.7 33.2 61 -6 21.2
07:40 1012 29.88 841 24.83 0.7 33.3 59 -6.3 20.6
07:45 1012 29.88 841 24.83 0.8 33.4 59 -6.2 20.8
07:50 1012 29.88 841 24.83 0.9 33.6 58 -6.5 20.4
07:55 1012 29.88 841 24.83 0.9 33.6 58 -6.4 20.5
08:00 1012 29.88 841 24.83 0.9 33.6 57 -6.6 20.1
08:05 1012 29.88 841 24.83 1 33.7 57 -6.6 20
08:10 1012 29.88 842 24.86 1 33.8 55 -7 19.4
08:15 1012 29.88 842 24.86 1.1 33.9 55 -7 19.4
08:20 1013 29.91 842 24.86 1 33.9 55 -7 19.5
08:25 1013 29.91 842 24.86 1.1 33.9 55 -7 19.4
08:30 1013 29.91 842 24.86 1 33.9 56 -6.8 19.7
08:35 1013 29.91 842 24.86 1.1 33.9 55 -6.9 19.6
08:40 1013 29.91 842 24.86 1.1 33.9 56 -6.8 19.7
08:45 1013 29.91 842 24.86 1.2 34.1 56 -6.6 20.2
08:50 1013 29.91 842 24.86 1.1 34 56 -6.7 19.9
08:55 1013 29.91 842 24.86 1.2 34.1 56 -6.6 20.2
09:00 1013 29.91 842 24.86 1.2 34.1 57 -6.4 20.6
09:05 1013 29.91 842 24.86 1.1 34.1 58 -6.3 20.6
09:10 1013 29.91 842 24.86 1.2 34.1 57 -6.4 20.5
09:15 1013 29.91 842 24.86 1.2 34.2 57 -6.3 20.6
09:20 1013 29.91 842 24.86 1.4 34.4 54 -7 19.5
09:25 1013 29.91 842 24.86 1.5 34.8 51 -7.4 18.6
09:30 1013 29.91 842 24.86 1.7 35.1 51 -7.4 18.7
09:35 1013 29.91 842 24.86 1.8 35.2 50 -7.5 18.6
09:40 1013 29.91 843 24.89 2 35.6 50 -7.4 18.7
09:45 1013 29.91 843 24.89 2 35.6 50 -7.4 18.6
09:50 1013 29.91 843 24.89 2 35.6 49 -7.6 18.3
09:55 1013 29.91 843 24.89 2.1 35.8 46 -8.3 17
10:00 1013 29.91 843 24.89 2.3 36.1 45 -8.5 16.7
10:05 1013 29.91 843 24.89 2.7 36.8 43 -8.7 16.3
10:10 1013 29.91 843 24.89 2.8 37.1 44 -8.2 17.2
10:15 1013 29.91 843 24.89 3 37.4 43 -8.3 17
10:20 1013 29.91 843 24.89 3.1 37.6 42 -8.7 16.4
10:25 1013 29.91 843 24.89 3 37.5 42 -8.7 16.4
10:30 1014 29.94 843 24.89 3 37.4 41 -9 15.8
10:35 1014 29.94 843 24.89 3.4 38.1 42 -8.4 16.9
10:40 1014 29.94 843 24.89 3.9 38.9 40 -8.5 16.8
10:45 1014 29.94 843 24.89 4.1 39.5 39 -8.7 16.4
10:50 1014 29.94 843 24.89 4 39.3 36 -9.7 14.5
10:55 1014 29.94 843 24.89 4.1 39.3 33 -10.9 12.4
11:00 1014 29.94 843 24.89 4.2 39.6 34 -10.1 13.8
11:05 1013 29.91 843 24.89 4.4 39.8 34 -10.4 13.3
11:10 1013 29.91 843 24.89 4 39.2 34 -10.3 13.4
11:15 1013 29.91 843 24.89 3.6 38.4 36 -10.2 13.6
11:20 1014 29.94 843 24.89 3.9 39.1 36 -9.7 14.5
11:25 1014 29.94 843 24.89 4.1 39.4 35 -9.9 14.2
11:30 1014 29.94 843 24.89 4.2 39.6 37 -9.1 15.7
11:35 1014 29.94 843 24.89 3.6 38.5 39 -9 15.7
11:40 1014 29.94 843 24.89 3.9 38.9 35 -10.3 13.4
11:45 1014 29.94 843 24.89 4.1 39.4 37 -9.3 15.3
11:50 1014 29.94 843 24.89 4.2 39.5 35 -10 14
11:55 1014 29.94 843 24.89 4.1 39.4 33 -10.8 12.6
12:00 1014 29.94 843 24.89 4.1 39.4 33 -10.8 12.6
12:05 1014 29.94 843 24.89 4.5 40.1 33 -10.6 13
12:10 1014 29.94 843 24.89 4.5 40 34 -10.3 13.5
12:15 1013 29.91 843 24.89 4.2 39.5 34 -10.2 13.7
12:20 1013 29.91 843 24.89 3.6 38.5 34 -10.9 12.3
12:25 1013 29.91 843 24.89 3.7 38.7 32 -11.6 11.2
12:30 1013 29.91 843 24.89 3.7 38.7 33 -11.3 11.7
12:35 1013 29.91 843 24.89 4 39.2 31 -11.8 10.7
12:40 1013 29.91 843 24.89 3.9 38.9 31 -11.9 10.5
12:45 1013 29.91 843 24.89 3.6 38.5 31 -12.1 10.2
12:50 1013 29.91 843 24.89 3.7 38.7 30 -12.2 10
12:55 1013 29.91 843 24.89 3.7 38.6 31 -12.1 10.2
13:00 1013 29.91 843 24.89 3.6 38.4 31 -12.1 10.2
13:05 1013 29.91 843 24.89 3.6 38.6 32 -11.6 11.1
13:10 1013 29.91 843 24.89 3.9 39.1 30 -12.1 10.3
13:15 1014 29.94 843 24.89 4.4 39.9 30 -11.8 10.7
13:20 1014 29.94 843 24.89 4.7 40.4 30 -11.6 11.2
13:25 1014 29.94 843 24.89 4.2 39.6 31 -11.4 11.4
13:30 1014 29.94 843 24.89 4.3 39.7 30 -12 10.4
13:35 1014 29.94 843 24.89 4.3 39.7 32 -11.2 11.8
13:40 1014 29.94 843 24.89 4.6 40.2 31 -11.4 11.6
13:45 1014 29.94 843 24.89 3.9 39 30 -12.2 10.1
13:50 1014 29.94 843 24.89 3.5 38.3 31 -12 10.5
13:55 1014 29.94 843 24.89 3.3 38 31 -12.2 10
14:00 1014 29.94 843 24.89 3.3 38 32 -11.8 10.7
14:05 1014 29.94 843 24.89 3.2 37.8 32 -11.9 10.5
14:10 1014 29.94 843 24.89 3.2 37.8 33 -11.7 10.9
14:15 1013 29.91 843 24.89 3.3 37.9 33 -11.7 11
14:20 1013 29.91 843 24.89 3.3 38 32 -11.8 10.7
14:25 1013 29.91 843 24.89 3.2 37.8 31 -12.3 9.9
14:30 1013 29.91 843 24.89 3.2 37.8 32 -12 10.4
14:35 1013 29.91 843 24.89 3.5 38.3 31 -11.9 10.5
14:40 1013 29.91 843 24.89 3.5 38.4 30 -12.4 9.7
14:45 1013 29.91 842 24.86 3.6 38.4 32 -11.6 11.1
14:50 1013 29.91 842 24.86 3.7 38.6 32 -11.7 10.9
14:55 1013 29.91 842 24.86 3.6 38.5 31 -11.9 10.5
15:00 1013 29.91 842 24.86 3.6 38.5 32 -11.4 11.4
15:05 1013 29.91 842 24.86 3.7 38.6 31 -11.9 10.6
15:10 1013 29.91 842 24.86 3.6 38.5 33 -11.3 11.7
15:15 1013 29.91 842 24.86 3.6 38.4 31 -12 10.5
15:20 1013 29.91 842 24.86 3.3 38 34 -11.3 11.7
15:25 1013 29.91 842 24.86 3.2 37.8 30 -12.6 9.3
15:30 1013 29.91 842 24.86 3.2 37.7 30 -12.6 9.3
15:35 1013 29.91 842 24.86 3.1 37.6 31 -12.4 9.7
15:40 1013 29.91 842 24.86 3.1 37.5 31 -12.6 9.3
15:45 1013 29.91 842 24.86 3 37.5 32 -12 10.4
15:50 1013 29.91 842 24.86 3 37.5 32 -12.2 10.1
15:55 1013 29.91 842 24.86 2.9 37.3 31 -12.4 9.6
16:00 1013 29.91 842 24.86 3 37.3 32 -12.2 10
16:05 1013 29.91 842 24.86 2.9 37.1 32 -12.2 10.1
16:10 1013 29.91 843 24.89 2.8 37.1 33 -11.8 10.7
16:15 1013 29.91 843 24.89 2.8 37 34 -11.7 11
16:20 1013 29.91 843 24.89 2.7 36.9 34 -11.7 11
16:25 1013 29.91 843 24.89 2.7 36.8 34 -11.6 11.1
16:30 1013 29.91 842 24.86 2.5 36.5 35 -11.4 11.5
16:35 1013 29.91 842 24.86 2.4 36.4 36 -11.2 11.8
16:40 1013 29.91 842 24.86 2.4 36.3 37 -10.8 12.6
16:45 1013 29.91 842 24.86 2.4 36.3 37 -10.9 12.5
16:50 1013 29.91 842 24.86 2.3 36.2 37 -10.8 12.5
16:55 1013 29.91 842 24.86 2.2 36 38 -10.7 12.7
17:00 1013 29.91 842 24.86 2.2 35.9 37 -11.1 12.1
17:05 1013 29.91 842 24.86 2.1 35.8 37 -11 12.1
17:10 1013 29.91 842 24.86 2.2 35.9 36 -11.3 11.6
17:15 1013 29.91 842 24.86 2.3 36.1 35 -11.6 11.1
17:20 1013 29.91 842 24.86 2.3 36.1 36 -11.2 11.8
17:25 1013 29.91 842 24.86 2.3 36.1 37 -10.9 12.5
17:30 1013 29.91 842 24.86 2.2 35.9 39 -10.3 13.4
17:35 1013 29.91 842 24.86 1.9 35.5 39 -10.8 12.6
17:40 1013 29.91 842 24.86 1.6 34.9 39 -10.8 12.6
17:45 1013 29.91 842 24.86 1.5 34.6 39 -10.9 12.4
17:50 1013 29.91 842 24.86 1.6 34.9 40 -10.7 12.7
17:55 1013 29.91 842 24.86 1.6 34.8 40 -10.7 12.7
18:00 1013 29.91 842 24.86 1.8 35.2 38 -11 12.1
18:05 1013 29.91 842 24.86 1.8 35.2 40 -10.5 13.1
18:10 1013 29.91 842 24.86 1.6 34.9 41 -10.2 13.7
18:15 1013 29.91 842 24.86 1.5 34.7 41 -10.4 13.3
18:20 1013 29.91 842 24.86 1.5 34.7 42 -10.2 13.7
18:25 1013 29.91 842 24.86 1.6 34.8 43 -9.7 14.6
18:30 1013 29.91 842 24.86 1.5 34.7 45 -9.3 15.3
18:35 1013 29.91 842 24.86 1.4 34.5 47 -8.8 16.1
18:40 1013 29.91 842 24.86 1.1 34 46 -9.1 15.6
18:45 1013 29.91 842 24.86 1.3 34.3 48 -8.6 16.5
18:50 1013 29.91 842 24.86 1.7 35 47 -8.5 16.7
18:55 1013 29.91 842 24.86 1.8 35.2 45 -8.9 15.9
19:00 1013 29.91 842 24.86 1.9 35.4 45 -8.9 15.9
19:05 1013 29.91 842 24.86 1.9 35.4 45 -8.8 16.2
19:10 1012 29.88 842 24.86 2.1 35.7 41 -10 14.1
19:15 1012 29.88 841 24.83 2.3 36.1 41 -9.7 14.6
19:20 1012 29.88 841 24.83 2.3 36.2 43 -9 15.8
19:25 1012 29.88 841 24.83 2.2 35.9 39 -10.3 13.5
19:30 1012 29.88 841 24.83 2.3 36.1 42 -9.4 15.2
19:35 1012 29.88 841 24.83 2.2 36 39 -10.2 13.7
19:40 1012 29.88 841 24.83 2.3 36.1 42 -9.5 15
19:45 1012 29.88 841 24.83 2.3 36.1 42 -9.5 15
19:50 1012 29.88 841 24.83 2.3 36.2 42 -9.4 15.1
19:55 1012 29.88 841 24.83 2.4 36.3 42 -9.4 15.1
20:00 1012 29.88 841 24.83 2.4 36.3 42 -9.4 15.1
20:05 1012 29.88 841 24.83 2.3 36.1 43 -9 15.8
20:10 1012 29.88 841 24.83 2.2 35.9 44 -8.8 16.1
20:15 1012 29.88 841 24.83 2.1 35.8 43 -9.1 15.5
20:20 1012 29.88 841 24.83 2.2 36 42 -9.4 15
20:25 1011 29.85 841 24.83 2.3 36.1 42 -9.4 15
20:30 1011 29.85 841 24.83 2.2 36 43 -9.2 15.5
20:35 1011 29.85 841 24.83 2.2 35.9 43 -9.2 15.5
20:40 1011 29.85 840 24.81 2.1 35.9 44 -8.8 16.1
20:45 1011 29.85 840 24.81 2.1 35.8 45 -8.7 16.3
20:50 1011 29.85 840 24.81 2 35.7 46 -8.5 16.7
20:55 1011 29.85 840 24.81 1.9 35.5 46 -8.5 16.7
21:00 1011 29.85 840 24.81 2 35.6 45 -8.8 16.2
21:05 1011 29.85 840 24.81 2 35.6 44 -9.1 15.6
21:10 1011 29.85 840 24.81 2.1 35.8 44 -8.8 16.2
21:15 1011 29.85 840 24.81 2.1 35.8 45 -8.5 16.7
21:20 1011 29.85 840 24.81 2.1 35.7 45 -8.6 16.6
21:25 1011 29.85 840 24.81 2.1 35.8 45 -8.5 16.6
21:30 1010 29.83 840 24.81 2.1 35.8 48 -7.8 18
21:35 1010 29.83 839 24.78 2.1 35.8 43 -9.2 15.5
21:40 1010 29.83 839 24.78 2.2 35.9 46 -8.2 17.3
21:45 1010 29.83 839 24.78 1.9 35.4 46 -8.5 16.7
21:50 1010 29.83 839 24.78 2 35.6 45 -8.8 16.1
21:55 1010 29.83 839 24.78 2.3 36.2 44 -8.6 16.6
22:00 1010 29.83 839 24.78 2.7 36.9 41 -9.2 15.4
22:05 1009 29.8 839 24.78 3 37.5 39 -9.6 14.7
22:10 1009 29.8 838 24.75 3 37.4 42 -8.6 16.5
22:15 1009 29.8 838 24.75 3.1 37.5 39 -9.5 14.9
22:20 1009 29.8 838 24.75 3 37.4 39 -9.5 14.9
22:25 1009 29.8 838 24.75 2.9 37.2 40 -9.5 14.9
22:30 1008 29.77 838 24.75 2.9 37.2 40 -9.3 15.2
22:35 1008 29.77 838 24.75 3 37.3 40 -9.3 15.3
22:40 1008 29.77 838 24.75 2.9 37.2 42 -8.8 16.2
22:45 1008 29.77 837 24.72 2.8 37 43 -8.6 16.4
22:50 1008 29.77 837 24.72 2.5 36.5 45 -8.1 17.4
22:55 1008 29.77 837 24.72 2.2 35.9 46 -8.3 17
23:00 1008 29.77 837 24.72 1.9 35.5 47 -8.3 17
23:05 1008 29.77 837 24.72 1.9 35.5 48 -8.1 17.4
23:10 1008 29.77 837 24.72 1.9 35.4 48 -7.9 17.7
23:15 1008 29.77 837 24.72 1.8 35.3 48 -7.9 17.7
23:20 1008 29.77 837 24.72 1.8 35.2 49 -7.8 17.9
23:25 1008 29.77 837 24.72 1.5 34.8 51 -7.5 18.5
23:30 1008 29.77 837 24.72 1.3 34.3 52 -7.4 18.6
23:35 1008 29.77 837 24.72 1.4 34.5 49 -8.1 17.4
23:40 1008 29.77 837 24.72 1.5 34.7 50 -7.9 17.8
23:45 1008 29.77 837 24.72 1.4 34.6 51 -7.7 18.2
23:50 1008 29.77 837 24.72 1.4 34.6 51 -7.6 18.3
23:55 1008 29.77 837 24.72 1.5 34.6 52 -7.5 18.6
24:00 1007 29.74 837 24.72 1.5 34.6 52 -7.3 18.8